Time;durP1;ratioP1;P1;durP2;ratioP2;P2;SDS_P1;SDS_P2;PMS_P1;PMS_P2;Temp;Humidity;BMP_temperature;BMP_pressure;BME280_temperature;BME280_humidity;BME280_pressure;Samples;Min_cycle;Max_cycle;Signal;HPM_P1;HPM_P2
2022/08/10 00:00:21;;;;;;;0.40;0.30;;;20.90;61.30;;;;;;5040032;28;20419;-75
2022/08/10 00:02:52;;;;;;;0.47;0.30;;;21.00;62.60;;;;;;5044035;28;20409;-75
2022/08/10 00:05:19;;;;;;;0.40;0.20;;;21.10;60.60;;;;;;5040008;28;20477;-75
2022/08/10 00:07:45;;;;;;;0.40;0.30;;;21.20;60.50;;;;;;5037855;28;20476;-75
2022/08/10 00:10:13;;;;;;;0.40;0.20;;;21.30;60.00;;;;;;5036358;28;20407;-75
2022/08/10 00:12:39;;;;;;;0.40;0.20;;;21.30;60.40;;;;;;5037434;28;20461;-75
2022/08/10 00:15:05;;;;;;;0.40;0.20;;;21.40;60.20;;;;;;5040059;28;20436;-75
2022/08/10 00:17:31;;;;;;;0.40;0.30;;;21.60;59.10;;;;;;5038081;28;20405;-75
2022/08/10 00:19:57;;;;;;;0.80;0.80;;;21.60;58.60;;;;;;5035689;28;20873;-75
2022/08/10 00:22:22;;;;;;;0.40;0.20;;;21.60;58.30;;;;;;5043682;28;20394;-75
2022/08/10 00:24:48;;;;;;;0.40;0.20;;;21.70;58.40;;;;;;5039612;28;20979;-75
2022/08/10 00:27:13;;;;;;;0.40;0.30;;;21.90;57.40;;;;;;5039308;28;20468;-75
2022/08/10 00:29:39;;;;;;;0.40;0.20;;;21.90;57.50;;;;;;5037825;28;20519;-75
2022/08/10 00:32:05;;;;;;;0.40;0.20;;;21.80;59.10;;;;;;5036165;28;20730;-75
2022/08/10 00:34:31;;;;;;;0.40;0.20;;;21.70;59.00;;;;;;5037104;28;20398;-74
2022/08/10 00:36:58;;;;;;;0.50;0.40;;;21.70;58.90;;;;;;5034655;28;20403;-75
2022/08/10 00:39:23;;;;;;;0.40;0.25;;;21.80;58.50;;;;;;5038900;28;20401;-75
2022/08/10 00:41:49;;;;;;;0.40;0.20;;;21.90;58.00;;;;;;5037641;28;20407;-75
2022/08/10 00:44:15;;;;;;;0.50;0.47;;;21.90;58.00;;;;;;5038138;28;20820;-75
2022/08/10 00:46:40;;;;;;;0.40;0.20;;;22.00;57.70;;;;;;5041264;28;20401;-75
2022/08/10 00:49:06;;;;;;;0.60;0.60;;;21.90;58.80;;;;;;5043570;28;20485;-75
2022/08/10 00:51:31;;;;;;;0.40;0.22;;;21.90;59.30;;;;;;5040088;28;20435;-75
2022/08/10 00:53:57;;;;;;;0.40;0.20;;;21.80;59.30;;;;;;5037293;28;20453;-75
2022/08/10 00:56:23;;;;;;;0.40;0.20;;;21.90;58.60;;;;;;5044705;28;20389;-75
2022/08/10 00:58:48;;;;;;;0.40;0.20;;;21.90;58.00;;;;;;5041616;28;20406;-75
2022/08/10 01:01:14;;;;;;;0.40;0.30;;;22.00;58.40;;;;;;5036614;28;20425;-75
2022/08/10 01:03:40;;;;;;;0.40;0.20;;;22.10;57.70;;;;;;5045154;28;20377;-75
2022/08/10 01:06:21;;;;;;;0.50;0.50;;;22.10;58.00;;;;;;5048512;28;20429;-75
2022/08/10 01:09:29;;;;;;;0.40;0.30;;;22.00;58.10;;;;;;5038346;28;20447;-75
2022/08/10 01:15:21;;;;;;;0.50;0.40;;;22.00;58.40;;;;;;4976901;28;20405;-75
2022/08/10 01:18:01;;;;;;;0.40;0.30;;;22.00;58.40;;;;;;4973752;28;20497;-75
2022/08/10 01:20:49;;;;;;;0.40;0.20;;;21.90;59.40;;;;;;5019557;28;20442;-75
2022/08/10 01:23:35;;;;;;;0.50;0.50;;;21.90;59.00;;;;;;5042288;28;20381;-75
2022/08/10 01:26:58;;;;;;;0.40;0.30;;;21.90;59.00;;;;;;5039346;28;20761;-75
2022/08/10 01:29:50;;;;;;;0.40;0.20;;;21.80;59.60;;;;;;5010728;28;20424;-75
2022/08/10 01:32:23;;;;;;;0.40;0.20;;;21.70;60.40;;;;;;5045665;28;20778;-75
2022/08/10 01:34:52;;;;;;;0.43;0.30;;;21.70;59.70;;;;;;5038797;28;20403;-75
2022/08/10 01:37:23;;;;;;;0.40;0.20;;;21.70;59.90;;;;;;5042624;28;20407;-75
2022/08/10 01:39:54;;;;;;;0.40;0.20;;;21.70;60.00;;;;;;5043759;28;20502;-75
2022/08/10 01:42:22;;;;;;;0.40;0.20;;;21.60;61.30;;;;;;5042184;28;20408;-75
2022/08/10 01:45:01;;;;;;;0.40;0.20;;;21.50;61.80;;;;;;5037416;28;20401;-75
2022/08/10 01:50:24;;;;;;;0.40;0.30;;;21.40;63.20;;;;;;5047450;28;20483;-75
2022/08/10 01:52:52;;;;;;;0.40;0.20;;;21.30;63.60;;;;;;5042491;28;20484;-75
2022/08/10 01:55:18;;;;;;;0.40;0.40;;;21.20;64.70;;;;;;5042528;28;20391;-75
2022/08/10 01:57:45;;;;;;;0.50;0.40;;;21.30;64.40;;;;;;5057050;28;20402;-75
2022/08/10 02:00:12;;;;;;;0.40;0.22;;;21.30;62.60;;;;;;5043671;28;20500;-75
2022/08/10 02:02:40;;;;;;;0.40;0.20;;;21.30;63.50;;;;;;5037904;28;20402;-75
2022/08/10 02:05:07;;;;;;;0.40;0.20;;;21.30;63.40;;;;;;5041080;28;20407;-75
2022/08/10 02:07:34;;;;;;;0.40;0.20;;;21.30;63.40;;;;;;5040559;28;20407;-75
2022/08/10 02:10:10;;;;;;;0.40;0.30;;;21.20;64.10;;;;;;5046901;28;20405;-75
2022/08/10 02:12:38;;;;;;;0.40;0.30;;;21.10;65.30;;;;;;5038926;28;20411;-75
2022/08/10 02:15:11;;;;;;;0.40;0.30;;;21.10;65.00;;;;;;5047462;28;20753;-75
2022/08/10 02:17:41;;;;;;;0.90;0.70;;;21.10;65.80;;;;;;5041026;28;20469;-75
2022/08/10 02:20:11;;;;;;;0.40;0.20;;;21.10;66.60;;;;;;5048558;28;20471;-75
2022/08/10 02:22:38;;;;;;;0.50;0.40;;;21.10;65.10;;;;;;5041573;28;20795;-75
2022/08/10 02:25:06;;;;;;;0.50;0.50;;;21.10;65.30;;;;;;5043694;28;20487;-75
2022/08/10 02:27:32;;;;;;;0.40;0.30;;;21.10;66.00;;;;;;5040809;28;20445;-74
2022/08/10 02:29:59;;;;;;;0.40;0.20;;;21.00;66.30;;;;;;5044151;28;20499;-75
2022/08/10 02:32:26;;;;;;;0.40;0.30;;;20.90;66.90;;;;;;5037130;28;20412;-75
2022/08/10 02:34:54;;;;;;;0.40;0.20;;;21.00;67.80;;;;;;5039325;28;20406;-75
2022/08/10 02:37:23;;;;;;;0.40;0.30;;;20.90;67.50;;;;;;5040426;28;20803;-75
2022/08/10 02:39:49;;;;;;;0.40;0.30;;;20.90;67.40;;;;;;5041902;28;20433;-75
2022/08/10 02:42:29;;;;;;;0.50;0.30;;;20.80;68.30;;;;;;5039188;28;20843;-75
2022/08/10 02:45:03;;;;;;;0.50;0.30;;;20.80;68.40;;;;;;5044535;28;20408;-75
2022/08/10 02:47:32;;;;;;;0.40;0.40;;;20.70;69.30;;;;;;5038970;28;20556;-75
2022/08/10 02:50:18;;;;;;;0.40;0.30;;;20.80;69.10;;;;;;5039312;28;20406;-75
2022/08/10 02:52:47;;;;;;;0.40;0.20;;;20.80;69.50;;;;;;5042506;28;20408;-75
2022/08/10 02:55:26;;;;;;;0.40;0.30;;;20.90;67.30;;;;;;5041196;28;20387;-75
2022/08/10 02:57:54;;;;;;;0.40;0.30;;;20.90;67.90;;;;;;5041276;28;20401;-74
2022/08/10 03:00:23;;;;;;;0.40;0.20;;;20.80;70.30;;;;;;5035163;28;20451;-75
2022/08/10 03:02:50;;;;;;;0.40;0.30;;;20.70;69.40;;;;;;5038776;28;20403;-75
2022/08/10 03:05:20;;;;;;;0.40;0.25;;;20.70;70.20;;;;;;5046829;28;20436;-75
2022/08/10 03:08:03;;;;;;;0.40;0.20;;;20.70;70.70;;;;;;5041177;28;20407;-75
2022/08/10 03:10:38;;;;;;;0.40;0.20;;;20.70;70.30;;;;;;5039239;28;20413;-75
2022/08/10 03:13:06;;;;;;;0.40;0.20;;;20.70;71.80;;;;;;5039778;28;20402;-75
2022/08/10 03:15:33;;;;;;;0.40;0.30;;;20.60;71.60;;;;;;5038918;28;20415;-75
2022/08/10 03:18:00;;;;;;;0.90;0.90;;;20.60;70.80;;;;;;5038903;28;20890;-75
2022/08/10 03:20:30;;;;;;;1.70;0.90;;;20.70;71.00;;;;;;5050502;28;20434;-74
2022/08/10 03:22:57;;;;;;;0.40;0.20;;;20.60;71.40;;;;;;5036455;28;20395;-74
2022/08/10 03:25:24;;;;;;;0.40;0.30;;;20.60;70.60;;;;;;5034983;28;20395;-75
2022/08/10 03:27:51;;;;;;;0.40;0.30;;;20.70;71.50;;;;;;5048806;28;20420;-74
2022/08/10 03:30:17;;;;;;;0.50;0.50;;;20.70;70.10;;;;;;5040888;28;20414;-75
2022/08/10 03:32:44;;;;;;;0.40;0.30;;;20.70;70.30;;;;;;5046490;28;21232;-75
2022/08/10 03:35:11;;;;;;;0.40;0.20;;;20.70;70.60;;;;;;5045774;28;20410;-75
2022/08/10 03:37:37;;;;;;;0.40;0.20;;;20.70;71.70;;;;;;5039069;28;20441;-75
2022/08/10 03:40:05;;;;;;;0.40;0.30;;;20.70;69.90;;;;;;5065305;28;20911;-75
2022/08/10 03:42:32;;;;;;;0.40;0.20;;;20.70;69.30;;;;;;5039088;28;20379;-75
2022/08/10 03:45:00;;;;;;;0.40;0.20;;;20.80;69.70;;;;;;5036822;28;20402;-75
2022/08/10 03:47:29;;;;;;;0.40;0.30;;;20.80;70.10;;;;;;5036144;28;20418;-75
2022/08/10 03:49:57;;;;;;;0.40;0.30;;;20.80;71.20;;;;;;5043471;28;20440;-75
2022/08/10 03:52:22;;;;;;;0.40;0.30;;;20.80;70.10;;;;;;5040159;28;20403;-75
2022/08/10 03:54:50;;;;;;;0.40;0.20;;;20.90;68.60;;;;;;5039933;28;20434;-75
2022/08/10 03:57:16;;;;;;;0.40;0.20;;;20.90;68.60;;;;;;5041113;28;20397;-75
2022/08/10 03:59:42;;;;;;;0.40;0.30;;;20.80;69.70;;;;;;5039299;28;20397;-75
2022/08/10 04:02:08;;;;;;;0.40;0.20;;;20.90;69.00;;;;;;5041869;28;20920;-75
2022/08/10 04:04:34;;;;;;;0.40;0.20;;;20.80;69.10;;;;;;5036751;28;20777;-75
2022/08/10 04:07:01;;;;;;;0.40;0.30;;;20.80;70.80;;;;;;5038345;28;20411;-75
2022/08/10 04:09:32;;;;;;;0.40;0.20;;;20.70;69.20;;;;;;5045021;28;20397;-75
2022/08/10 04:11:58;;;;;;;0.40;0.20;;;20.70;69.70;;;;;;5039661;28;20405;-75
2022/08/10 04:14:23;;;;;;;0.40;0.30;;;20.70;69.20;;;;;;5033656;22;20444;-71
2022/08/10 04:16:49;;;;;;;0.40;0.30;;;20.70;70.10;;;;;;4998155;28;20396;-71
2022/08/10 04:19:17;;;;;;;0.50;0.50;;;20.70;69.70;;;;;;5012179;28;20392;-70
2022/08/10 04:21:50;;;;;;;0.40;0.30;;;20.70;72.00;;;;;;5012515;28;20408;-70
2022/08/10 04:24:21;;;;;;;0.40;0.20;;;20.60;72.30;;;;;;5012092;28;20385;-71
2022/08/10 04:26:47;;;;;;;0.40;0.20;;;20.70;70.70;;;;;;5012250;28;20839;-71
2022/08/10 04:29:13;;;;;;;0.40;0.20;;;20.60;71.60;;;;;;5012267;28;20390;-71
2022/08/10 04:31:40;;;;;;;0.40;0.25;;;20.60;73.20;;;;;;5012312;28;20484;-72
2022/08/10 04:34:06;;;;;;;0.40;0.20;;;20.60;73.10;;;;;;5011803;28;20401;-72
2022/08/10 04:36:33;;;;;;;0.40;0.30;;;20.40;73.70;;;;;;5012534;28;20385;-72
2022/08/10 04:38:59;;;;;;;0.40;0.30;;;20.50;73.50;;;;;;5011662;28;20830;-72
2022/08/10 04:41:24;;;;;;;0.60;0.50;;;20.40;75.10;;;;;;5012006;28;20400;-72
2022/08/10 04:43:50;;;;;;;0.40;0.20;;;20.40;75.40;;;;;;5011609;28;20400;-71
2022/08/10 04:46:16;;;;;;;0.40;0.30;;;20.40;75.20;;;;;;5012432;28;20377;-71
2022/08/10 04:48:41;;;;;;;0.40;0.20;;;20.20;76.40;;;;;;5011606;28;20471;-71
2022/08/10 04:51:07;;;;;;;0.40;0.30;;;20.20;77.90;;;;;;5011873;28;20389;-70
2022/08/10 04:53:33;;;;;;;0.40;0.30;;;20.10;76.70;;;;;;5011646;28;20413;-72
2022/08/10 04:55:58;;;;;;;0.40;0.30;;;20.10;81.00;;;;;;5011891;28;20489;-72
2022/08/10 04:58:24;;;;;;;0.40;0.22;;;20.00;79.20;;;;;;5015751;28;20388;-71
2022/08/10 05:00:49;;;;;;;0.40;0.30;;;20.00;80.90;;;;;;5015636;28;20503;-71
2022/08/10 05:03:15;;;;;;;0.40;0.20;;;20.00;83.10;;;;;;5015141;28;20403;-72
2022/08/10 05:05:40;;;;;;;0.40;0.30;;;19.90;82.70;;;;;;5015789;28;20579;-71
2022/08/10 05:08:06;;;;;;;0.50;0.40;;;19.90;83.20;;;;;;5015291;28;20389;-72
2022/08/10 05:10:31;;;;;;;0.40;0.30;;;19.90;84.90;;;;;;5015018;28;20380;-72
2022/08/10 05:12:57;;;;;;;0.50;0.50;;;19.80;84.60;;;;;;5015155;28;20403;-70
2022/08/10 05:15:23;;;;;;;0.40;0.30;;;19.90;85.80;;;;;;5015331;28;20385;-71
2022/08/10 05:17:49;;;;;;;0.40;0.30;;;19.80;88.60;;;;;;5015050;28;20425;-71
2022/08/10 05:20:15;;;;;;;0.40;0.30;;;19.80;86.80;;;;;;5015051;28;20926;-71
2022/08/10 05:22:44;;;;;;;0.40;0.20;;;20.00;88.00;;;;;;5014337;28;20408;-72
2022/08/10 05:25:13;;;;;;;0.40;0.30;;;20.00;88.00;;;;;;5012713;28;20413;-71
2022/08/10 05:27:40;;;;;;;1.10;0.60;;;20.00;89.50;;;;;;5013962;28;20968;-71
2022/08/10 05:30:07;;;;;;;0.40;0.30;;;19.90;90.20;;;;;;5012535;28;20461;-71
2022/08/10 05:32:34;;;;;;;0.40;0.30;;;20.00;90.20;;;;;;5008328;28;20414;-71
2022/08/10 05:34:59;;;;;;;0.40;0.30;;;20.20;88.30;;;;;;5010187;28;20388;-71
2022/08/10 05:37:27;;;;;;;0.40;0.30;;;20.30;89.10;;;;;;5013753;28;20557;-71
2022/08/10 05:39:54;;;;;;;0.40;0.20;;;20.60;83.40;;;;;;5006179;28;20410;-71
2022/08/10 05:42:20;;;;;;;0.40;0.20;;;20.80;82.90;;;;;;5012526;28;20389;-71
2022/08/10 05:44:46;;;;;;;0.40;0.40;;;21.10;78.30;;;;;;5013772;28;20391;-71
2022/08/10 05:47:11;;;;;;;0.40;0.20;;;21.20;76.40;;;;;;5012376;28;20404;-71
2022/08/10 05:49:37;;;;;;;0.40;0.30;;;21.40;74.70;;;;;;5001531;28;20386;-72
2022/08/10 05:52:03;;;;;;;0.40;0.30;;;21.50;74.90;;;;;;5010224;28;20491;-71
2022/08/10 05:54:28;;;;;;;0.40;0.30;;;21.50;76.50;;;;;;5004456;28;20391;-72
2022/08/10 05:56:54;;;;;;;0.40;0.20;;;21.50;76.50;;;;;;5011344;28;20418;-71
2022/08/10 05:59:21;;;;;;;0.40;0.30;;;21.60;74.80;;;;;;5008780;28;20908;-72
2022/08/10 06:01:50;;;;;;;0.40;0.30;;;21.70;75.90;;;;;;5013025;28;20811;-71
2022/08/10 06:04:24;;;;;;;0.40;0.30;;;21.70;74.70;;;;;;5012606;28;20484;-71
2022/08/10 06:06:52;;;;;;;0.40;0.30;;;21.80;75.60;;;;;;5005151;28;20428;-71
2022/08/10 06:09:19;;;;;;;0.40;0.25;;;21.90;73.90;;;;;;5012735;28;20393;-71
2022/08/10 06:11:47;;;;;;;0.40;0.30;;;21.90;75.40;;;;;;5003596;28;20451;-71
2022/08/10 06:17:02;;;;;;;0.40;0.20;;;21.80;77.70;;;;;;5001865;28;20405;-72
2022/08/10 06:19:29;;;;;;;1.10;1.10;;;21.90;75.20;;;;;;5008711;28;20460;-72
2022/08/10 06:22:00;;;;;;;0.40;0.30;;;21.80;78.40;;;;;;5002963;28;20480;-72
2022/08/10 06:24:27;;;;;;;0.40;0.20;;;21.90;76.30;;;;;;5010043;28;20416;-71
2022/08/10 06:26:53;;;;;;;0.40;0.20;;;21.90;77.40;;;;;;5011486;28;21009;-73
2022/08/10 06:29:20;;;;;;;0.40;0.20;;;22.00;77.00;;;;;;5002085;28;20518;-73
2022/08/10 06:31:50;;;;;;;0.40;0.30;;;22.00;79.80;;;;;;5007625;28;20404;-73
2022/08/10 06:34:24;;;;;;;0.40;0.20;;;22.00;76.80;;;;;;5000872;28;20469;-73
2022/08/10 06:36:51;;;;;;;0.40;0.30;;;22.20;74.00;;;;;;5003196;28;20896;-72
2022/08/10 06:39:17;;;;;;;0.60;0.40;;;22.30;72.60;;;;;;5000286;28;20410;-72
2022/08/10 06:41:47;;;;;;;0.40;0.20;;;22.30;74.30;;;;;;5003609;28;20864;-72
2022/08/10 06:44:18;;;;;;;0.40;0.30;;;22.40;72.30;;;;;;5004163;28;20458;-72
2022/08/10 06:46:47;;;;;;;0.40;0.20;;;22.50;71.90;;;;;;5000070;28;20406;-72
2022/08/10 06:49:17;;;;;;;0.40;0.30;;;22.60;70.20;;;;;;4995950;28;20398;-72
2022/08/10 06:51:46;;;;;;;0.40;0.20;;;22.60;71.30;;;;;;5008417;28;20405;-72
2022/08/10 06:54:16;;;;;;;0.40;0.30;;;22.60;71.40;;;;;;5011502;28;20397;-72
2022/08/10 06:56:44;;;;;;;0.40;0.30;;;22.90;69.20;;;;;;5011988;28;20385;-72
2022/08/10 06:59:24;;;;;;;0.40;0.30;;;22.90;69.20;;;;;;5010410;28;20400;-73
2022/08/10 07:02:01;;;;;;;0.40;0.30;;;23.10;68.00;;;;;;5002491;28;20408;-73
2022/08/10 07:04:31;;;;;;;0.40;0.30;;;23.10;67.30;;;;;;5010947;28;20400;-73
2022/08/10 07:06:59;;;;;;;0.40;0.30;;;23.20;67.20;;;;;;5011981;28;20893;-73
2022/08/10 07:09:26;;;;;;;0.40;0.20;;;23.30;65.50;;;;;;5011645;28;20423;-73
2022/08/10 07:11:54;;;;;;;0.40;0.20;;;23.40;64.90;;;;;;5011087;28;20393;-71
2022/08/10 07:14:21;;;;;;;0.40;0.30;;;23.60;64.20;;;;;;5000929;28;20919;-73
2022/08/10 07:16:47;;;;;;;0.40;0.30;;;23.60;64.50;;;;;;5005443;28;20799;-72
2022/08/10 07:19:14;;;;;;;0.40;0.30;;;23.70;62.60;;;;;;5005419;28;20486;-73
2022/08/10 07:21:42;;;;;;;0.40;0.20;;;23.80;61.70;;;;;;5004704;28;20410;-73
2022/08/10 07:24:14;;;;;;;0.40;0.30;;;23.70;61.40;;;;;;5005623;28;20400;-73
2022/08/10 07:26:45;;;;;;;0.50;0.40;;;23.80;61.30;;;;;;4996522;28;20408;-73
2022/08/10 07:29:14;;;;;;;0.40;0.20;;;23.90;59.80;;;;;;5011527;28;20404;-73
2022/08/10 07:31:40;;;;;;;0.40;0.30;;;24.00;59.60;;;;;;5009035;28;20929;-73
2022/08/10 07:34:11;;;;;;;0.40;0.20;;;24.00;59.50;;;;;;4991065;28;20470;-74
2022/08/10 07:36:39;;;;;;;0.50;0.30;;;24.10;58.90;;;;;;4990456;28;20383;-73
2022/08/10 07:39:09;;;;;;;0.40;0.20;;;24.20;58.30;;;;;;4990543;28;20946;-72
2022/08/10 07:41:41;;;;;;;0.40;0.25;;;24.20;58.20;;;;;;4990296;28;20406;-73
2022/08/10 07:44:08;;;;;;;0.40;0.30;;;24.20;58.10;;;;;;4991358;28;20397;-73
2022/08/10 07:46:37;;;;;;;0.40;0.30;;;24.20;57.70;;;;;;5000670;28;20502;-73
2022/08/10 07:49:11;;;;;;;0.40;0.30;;;24.30;57.20;;;;;;5007017;28;20435;-72
2022/08/10 07:51:37;;;;;;;0.40;0.28;;;24.40;57.00;;;;;;4996377;28;20409;-73
2022/08/10 07:54:04;;;;;;;0.40;0.20;;;24.60;56.60;;;;;;5002620;28;20392;-73
2022/08/10 07:56:32;;;;;;;0.40;0.30;;;24.50;56.50;;;;;;5007870;28;20440;-73
2022/08/10 07:59:08;;;;;;;0.40;0.30;;;24.50;56.20;;;;;;5007585;28;20417;-73
2022/08/10 08:01:38;;;;;;;0.40;0.20;;;24.60;55.50;;;;;;5001191;28;20465;-72
2022/08/10 08:04:05;;;;;;;0.40;0.30;;;24.60;56.40;;;;;;5002522;28;20498;-74
2022/08/10 08:06:32;;;;;;;0.40;0.20;;;24.70;55.40;;;;;;5003308;28;20763;-73
2022/08/10 08:09:02;;;;;;;0.40;0.20;;;24.90;54.80;;;;;;5002085;28;20775;-73
2022/08/10 08:11:29;;;;;;;0.40;0.20;;;24.90;54.10;;;;;;4999297;28;20394;-74
2022/08/10 08:13:56;;;;;;;0.40;0.20;;;24.90;55.40;;;;;;4997581;28;20476;-73
2022/08/10 08:16:22;;;;;;;0.40;0.30;;;24.90;55.70;;;;;;5007761;28;20408;-73
2022/08/10 08:18:51;;;;;;;0.40;0.30;;;24.90;55.30;;;;;;4996334;28;20394;-72
2022/08/10 08:21:18;;;;;;;0.40;0.30;;;25.20;54.20;;;;;;5000608;28;20410;-72
2022/08/10 08:23:46;;;;;;;0.40;0.20;;;25.20;53.70;;;;;;4992166;28;20453;-73
2022/08/10 08:26:12;;;;;;;0.50;0.30;;;25.20;54.30;;;;;;5010592;28;20507;-72
2022/08/10 08:28:39;;;;;;;0.40;0.20;;;25.20;53.90;;;;;;5010519;28;20959;-73
2022/08/10 08:31:05;;;;;;;0.40;0.20;;;25.20;55.10;;;;;;5010604;28;20445;-73
2022/08/10 08:33:33;;;;;;;0.40;0.30;;;25.30;53.80;;;;;;4994864;28;20955;-73
2022/08/10 08:35:59;;;;;;;0.40;0.20;;;25.40;53.40;;;;;;4990654;28;20402;-72
2022/08/10 08:38:26;;;;;;;0.40;0.20;;;25.40;53.30;;;;;;5002133;28;20824;-73
2022/08/10 08:41:24;;;;;;;0.40;0.20;;;25.50;53.10;;;;;;5002458;28;20431;-73
2022/08/10 08:44:10;;;;;;;0.40;0.30;;;25.60;53.20;;;;;;5005837;28;22580;-73
2022/08/10 08:46:54;;;;;;;0.40;0.20;;;25.60;52.50;;;;;;5004459;28;20898;-73
2022/08/10 08:49:23;;;;;;;0.40;0.30;;;25.60;52.60;;;;;;5006125;28;20424;-74
2022/08/10 08:52:13;;;;;;;0.40;0.22;;;25.70;53.20;;;;;;5001123;28;20711;-73
2022/08/10 08:55:10;;;;;;;0.40;0.20;;;25.70;52.60;;;;;;4990403;28;20391;-73
2022/08/10 08:57:50;;;;;;;0.40;0.30;;;25.80;51.20;;;;;;5006938;28;20394;-74
2022/08/10 09:00:40;;;;;;;0.40;0.20;;;25.90;51.70;;;;;;4995115;28;20417;-73
2022/08/10 09:03:38;;;;;;;0.40;0.20;;;26.00;50.90;;;;;;4994219;28;20409;-73
2022/08/10 09:06:24;;;;;;;0.40;0.20;;;26.00;51.60;;;;;;4997111;28;20487;-74
2022/08/10 09:09:20;;;;;;;0.40;0.20;;;26.10;49.90;;;;;;5002790;28;20483;-73
2022/08/10 09:11:57;;;;;;;0.40;0.20;;;26.20;49.10;;;;;;5000389;28;20931;-73
2022/08/10 09:14:51;;;;;;;0.40;0.30;;;26.50;48.60;;;;;;5000757;28;20525;-73
2022/08/10 09:17:26;;;;;;;0.40;0.20;;;26.50;48.80;;;;;;4997541;28;20418;-73
2022/08/10 09:20:15;;;;;;;0.40;0.25;;;26.50;48.00;;;;;;5001160;28;20409;-74
2022/08/10 09:23:00;;;;;;;0.50;0.50;;;26.50;47.30;;;;;;5000281;28;20443;-74
2022/08/10 09:25:36;;;;;;;0.40;0.30;;;26.50;47.50;;;;;;5008164;28;20420;-74
2022/08/10 09:28:03;;;;;;;0.40;0.30;;;26.50;47.50;;;;;;4997911;28;20952;-73
2022/08/10 09:30:43;;;;;;;0.40;0.30;;;26.60;46.60;;;;;;5006393;28;20457;-74
2022/08/10 09:33:14;;;;;;;0.40;0.30;;;26.60;46.60;;;;;;5004116;28;20392;-75
2022/08/10 09:36:07;;;;;;;0.40;0.30;;;26.70;46.60;;;;;;5004494;28;20791;-74
2022/08/10 09:38:46;;;;;;;0.40;0.30;;;26.90;45.40;;;;;;4998030;28;20393;-74
2022/08/10 09:41:29;;;;;;;0.40;0.20;;;26.90;45.70;;;;;;5008346;28;20420;-73
2022/08/10 09:44:32;;;;;;;0.40;0.30;;;26.90;44.90;;;;;;5007785;28;20774;-74
2022/08/10 09:47:14;;;;;;;0.40;0.30;;;27.00;45.00;;;;;;5000328;28;20406;-74
2022/08/10 09:50:03;;;;;;;0.40;0.30;;;27.10;45.40;;;;;;5001466;28;20918;-73
2022/08/10 09:52:50;;;;;;;0.40;0.30;;;27.00;45.80;;;;;;5009611;28;20426;-74
2022/08/10 09:55:42;;;;;;;0.40;0.20;;;27.10;45.70;;;;;;5005155;28;20507;-74
2022/08/10 09:58:22;;;;;;;0.40;0.20;;;27.20;44.20;;;;;;5008132;28;20432;-73
2022/08/10 10:00:57;;;;;;;0.40;0.20;;;27.20;45.50;;;;;;5011566;28;21178;-73
2022/08/10 10:03:32;;;;;;;0.40;0.20;;;27.50;45.40;;;;;;5005781;28;20421;-73
2022/08/10 10:06:03;;;;;;;0.40;0.20;;;27.60;44.20;;;;;;5004539;28;20519;-73
2022/08/10 10:09:08;;;;;;;0.40;0.30;;;27.60;43.40;;;;;;5001439;28;20891;-74
2022/08/10 10:12:05;;;;;;;0.40;0.30;;;27.60;43.10;;;;;;5002857;28;20441;-74
2022/08/10 10:18:04;;;;;;;0.40;0.20;;;27.80;43.40;;;;;;5018030;28;20469;-69
2022/08/10 10:20:40;;;;;;;0.40;0.30;;;27.90;41.80;;;;;;5032217;28;20819;-70
2022/08/10 10:23:23;;;;;;;0.40;0.20;;;28.00;41.50;;;;;;5029975;28;20403;-70
2022/08/10 10:26:25;;;;;;;0.40;0.20;;;28.10;41.90;;;;;;5026485;28;20885;-69
2022/08/10 10:29:19;;;;;;;0.40;0.20;;;28.30;41.90;;;;;;5032913;28;20998;-70
2022/08/10 10:32:00;;;;;;;0.40;0.30;;;28.30;42.00;;;;;;5032393;28;20473;-70
2022/08/10 10:35:00;;;;;;;0.40;0.30;;;28.20;42.10;;;;;;5038385;28;20393;-69
2022/08/10 10:37:28;;;;;;;0.40;0.20;;;28.30;42.50;;;;;;5032503;28;20406;-68
2022/08/10 10:39:56;;;;;;;0.40;0.20;;;28.20;42.50;;;;;;5032114;28;20943;-68
2022/08/10 10:42:42;;;;;;;0.40;0.30;;;28.50;42.10;;;;;;5031320;28;20422;-67
2022/08/10 10:45:22;;;;;;;0.40;0.20;;;28.60;41.70;;;;;;5032245;28;20387;-67
2022/08/10 10:47:51;;;;;;;0.40;0.20;;;28.60;40.40;;;;;;5032249;28;20390;-67
2022/08/10 10:50:55;;;;;;;0.40;0.30;;;28.50;41.70;;;;;;5032229;28;20875;-68
2022/08/10 10:53:58;;;;;;;0.40;0.20;;;28.80;42.30;;;;;;5031811;28;20437;-69
2022/08/10 10:56:34;;;;;;;0.40;0.20;;;29.00;40.00;;;;;;5030356;28;20453;-67
2022/08/10 10:59:12;;;;;;;0.40;0.30;;;29.10;39.50;;;;;;5032034;28;20762;-68
2022/08/10 11:01:51;;;;;;;0.40;0.20;;;29.10;40.20;;;;;;5031985;28;20407;-67
2022/08/10 11:04:26;;;;;;;0.40;0.20;;;28.90;39.70;;;;;;5031669;28;20387;-67
2022/08/10 11:07:23;;;;;;;0.40;0.20;;;29.00;40.00;;;;;;5032021;28;20466;-67
2022/08/10 11:09:53;;;;;;;0.40;0.20;;;29.40;40.50;;;;;;5031907;28;20395;-67
2022/08/10 11:12:35;;;;;;;0.40;0.20;;;29.60;39.10;;;;;;5031952;28;20383;-67
2022/08/10 11:15:26;;;;;;;0.40;0.30;;;29.50;39.00;;;;;;5031072;28;20383;-67
2022/08/10 11:17:57;;;;;;;0.60;0.50;;;29.80;40.10;;;;;;5031194;28;20417;-68
2022/08/10 11:20:38;;;;;;;0.40;0.20;;;29.90;38.60;;;;;;5031727;28;20406;-69
2022/08/10 11:23:16;;;;;;;0.40;0.20;;;30.20;38.20;;;;;;5031666;28;20407;-68
2022/08/10 11:25:45;;;;;;;0.40;0.20;;;30.30;36.70;;;;;;5031223;28;20393;-71
2022/08/10 11:28:24;;;;;;;0.40;0.20;;;30.50;36.90;;;;;;5031426;28;20391;-70
2022/08/10 11:31:15;;;;;;;0.40;0.20;;;30.20;37.30;;;;;;5031701;28;20895;-70
2022/08/10 11:33:40;;;;;;;0.40;0.20;;;30.60;38.60;;;;;;5012368;28;20433;-70
2022/08/10 11:36:18;;;;;;;0.40;0.20;;;30.10;36.10;;;;;;5011968;28;20985;-70
2022/08/10 11:39:08;;;;;;;0.40;0.20;;;30.60;36.80;;;;;;5011715;28;20931;-70
2022/08/10 11:41:42;;;;;;;0.40;0.30;;;31.00;35.30;;;;;;5003927;28;20810;-70
2022/08/10 11:44:24;;;;;;;0.40;0.20;;;31.30;36.20;;;;;;5011365;28;20401;-71
2022/08/10 11:47:10;;;;;;;0.40;0.30;;;32.20;35.00;;;;;;5010879;28;20385;-68
2022/08/10 11:50:15;;;;;;;0.40;0.20;;;32.50;33.00;;;;;;5011359;28;20385;-69
2022/08/10 11:53:20;;;;;;;0.40;0.20;;;32.90;33.50;;;;;;5011312;28;20384;-68
2022/08/10 11:55:54;;;;;;;0.40;0.20;;;32.70;31.30;;;;;;5002179;28;20419;-68
2022/08/10 12:01:10;;;;;;;0.40;0.20;;;32.70;30.10;;;;;;5011376;28;20436;-68
2022/08/10 12:03:39;;;;;;;0.40;0.20;;;33.10;30.00;;;;;;5011076;28;20387;-71
2022/08/10 12:06:10;;;;;;;0.80;0.40;;;33.10;30.10;;;;;;5010619;28;20400;-68
2022/08/10 12:08:37;;;;;;;0.40;0.20;;;33.60;28.90;;;;;;5009920;28;20392;-69
2022/08/10 12:11:03;;;;;;;0.40;0.20;;;33.70;29.60;;;;;;5010993;28;20468;-69
2022/08/10 12:13:36;;;;;;;0.40;0.20;;;33.40;28.30;;;;;;5010827;28;20432;-69
2022/08/10 12:16:09;;;;;;;0.40;0.20;;;33.80;29.20;;;;;;5011216;28;20424;-69
2022/08/10 12:18:45;;;;;;;0.40;0.20;;;34.50;27.90;;;;;;5011033;28;20399;-69
2022/08/10 12:21:17;;;;;;;0.40;0.20;;;34.40;27.70;;;;;;5011037;28;20946;-68
2022/08/10 12:23:49;;;;;;;0.40;0.20;;;34.50;27.30;;;;;;5009669;28;20393;-67
2022/08/10 12:26:22;;;;;;;0.40;0.20;;;33.90;27.50;;;;;;5010188;28;20415;-69
2022/08/10 12:29:06;;;;;;;0.40;0.20;;;34.40;28.90;;;;;;5011002;28;20467;-68
2022/08/10 12:31:40;;;;;;;0.40;0.20;;;33.80;27.10;;;;;;5012176;28;20758;-69
2022/08/10 12:34:36;;;;;;;0.40;0.20;;;33.90;27.10;;;;;;5030524;28;20818;-69
2022/08/10 12:37:11;;;;;;;0.40;0.20;;;33.80;26.80;;;;;;5030428;28;20394;-69
2022/08/10 12:39:50;;;;;;;0.40;0.20;;;34.10;26.90;;;;;;5030202;28;20445;-68
2022/08/10 12:42:24;;;;;;;0.40;0.20;;;34.00;26.30;;;;;;5030022;28;20897;-69
2022/08/10 12:45:01;;;;;;;0.40;0.20;;;33.40;26.70;;;;;;5030078;28;20388;-69
2022/08/10 12:47:29;;;;;;;0.40;0.20;;;34.00;26.20;;;;;;5030586;28;20457;-68
2022/08/10 12:50:18;;;;;;;0.40;0.20;;;34.20;26.70;;;;;;5029240;28;20877;-69
2022/08/10 12:53:17;;;;;;;0.40;0.20;;;33.50;25.30;;;;;;5021050;28;20395;-69
2022/08/10 12:55:44;;;;;;;0.40;0.20;;;33.90;25.90;;;;;;5028783;28;20462;-69
2022/08/10 12:58:16;;;;;;;0.40;0.30;;;34.30;25.20;;;;;;5032225;28;20461;-69
2022/08/10 13:00:43;;;;;;;0.40;0.20;;;34.60;25.90;;;;;;5030188;28;20422;-69
2022/08/10 13:03:11;;;;;;;0.40;0.20;;;34.30;24.70;;;;;;5029418;28;20422;-68
2022/08/10 13:05:38;;;;;;;0.40;0.20;;;34.70;24.30;;;;;;5030190;28;20422;-69
2022/08/10 13:10:59;;;;;;;0.40;0.20;;;34.00;25.10;;;;;;5020966;28;21013;-69
2022/08/10 13:13:30;;;;;;;0.40;0.20;;;34.60;26.40;;;;;;5018070;28;20387;-69
2022/08/10 13:15:57;;;;;;;0.40;0.20;;;34.10;24.20;;;;;;5021176;28;20502;-69
2022/08/10 13:18:36;;;;;;;0.40;0.20;;;34.10;24.40;;;;;;5022133;28;20393;-69
2022/08/10 13:21:06;;;;;;;0.40;0.20;;;34.80;25.80;;;;;;5025137;28;20395;-69
2022/08/10 13:23:39;;;;;;;0.40;0.20;;;35.00;24.90;;;;;;5024963;28;20806;-69
2022/08/10 13:26:24;;;;;;;0.40;0.20;;;34.70;24.70;;;;;;5024568;28;20392;-69
2022/08/10 13:28:55;;;;;;;0.40;0.20;;;34.50;25.80;;;;;;5023564;28;20396;-69
2022/08/10 13:31:27;;;;;;;0.40;0.20;;;34.20;25.20;;;;;;5023965;28;20462;-68
2022/08/10 13:33:59;;;;;;;0.40;0.20;;;34.30;25.90;;;;;;5024630;28;20725;-68